• Join FlightAware (Why Join?)
  • Login
  • US Flag 
02:40PM EDT


 

Airport Tracker/Info


-or-


 

Live Flight TrackerFlight Track Log ✈ EJA396 ✈ 20-Jun-2013 ✈ KBCT - KBOS

Flight Track Log - Related Links

Times and Time Zones

All times are in EDT time to prevent confusion due to time zone crossing. See the EJA396 flight status page for this flight to view local times or setup timezone preferences in your user account.

Time Position Orientation Groundspeed Altitude Reporting Facility
EDT Latitude Longitude Course Direction KTS MPH feet Rate Location/Type
07:41AM 26.6228 -80.2053 343° North 371 427 10,000  Level Miami Center
07:42AM 26.6514 -80.3131 287° West 343 395 12,900 3,060 Climbing Miami Center
07:43AM 26.7258 -80.3525 335° Northwest 308 354 16,200 2,760 Climbing Miami Center
07:44AM 26.8186 -80.3947 338° Northwest 315 362 18,500 2,280 Climbing Miami Center
07:45AM 26.9139 -80.4325 341° North 331 381 20,800 2,280 Climbing Miami Center
07:46AM 26.8963 -80.5099 343° North  Level FlightAware Approximate
07:46AM 27.0111 -80.4658 343° North 353 406 23,100  Level Miami Center
07:47AM 27.1125 -80.5017 343° North 360 414 24,900 1,800 Climbing Miami Center
07:48AM 27.2139 -80.5397 342° North 374 430 26,700 1,740 Climbing Miami Center
07:49AM 27.3194 -80.5806 341° North 385 443 28,500 1,740 Climbing Miami Center
07:50AM 27.4225 -80.6236 340° North 395 455 30,300 1,680 Climbing Miami Center
07:51AM 27.5322 -80.6625 343° North 400 460 31,900 1,440 Climbing Miami Center
07:52AM 27.6397 -80.7036 341° North 405 466 33,200 1,200 Climbing Miami Center
07:53AM 27.7514 -80.7472 341° North 405 466 34,400 1,200 Climbing Miami Center
07:54AM 27.8692 -80.7886 343° North 415 478 35,600 1,200 Climbing Miami Center
07:55AM 27.9786 -80.8303 341° North 422 486 36,800 1,140 Climbing Miami Center
07:57AM 28.1553 -80.8986 341° North 418 481 38,700 1,140 Climbing Jacksonville Center
07:58AM 28.2625 -80.9389 342° North 418 481 39,900 1,140 Climbing Jacksonville Center
07:59AM 28.3672 -80.9817 340° North 405 466 41,000 540 Climbing Jacksonville Center
08:00AM 28.4786 -81.0292 339° North 405 466 41,000  Level Jacksonville Center
08:01AM 28.5942 -81.0744 341° North 411 473 41,000  Level Jacksonville Center
08:02AM 28.7053 -81.1172 341° North 411 473 41,000  Level Jacksonville Center
08:03AM 28.8225 -81.1342 353° North 411 473 41,000  Level Jacksonville Center
08:04AM 28.9414 -81.1369 359° North 416 479 41,000  Level Jacksonville Center
08:05AM 29.0603 -81.1394 359° North 421 484 41,000  Level Jacksonville Center
08:06AM 29.1772 -81.1397 360° North 421 484 41,000  Level Jacksonville Center
08:07AM 29.2964 -81.1425 359° North 421 484 41,000  Level Jacksonville Center
08:08AM 29.4153 -81.1428 360° North 421 484 41,000  Level Jacksonville Center
08:09AM 29.5197 -81.1408 North 421 484 41,000  Level Jacksonville Center
08:10AM 29.6511 -81.1433 359° North 421 484 41,000  Level Jacksonville Center
08:11AM 29.7703 -81.1458 359° North 430 495 41,000  Level Jacksonville Center
08:12AM 29.8892 -81.1486 359° North 430 495 41,000  Level Jacksonville Center
08:13AM 30.0083 -81.1489 360° North 425 489 41,000  Level Jacksonville Center
08:14AM 30.1272 -81.1514 359° North 425 489 41,000  Level Jacksonville Center
08:15AM 30.2464 -81.1542 359° North 417 480 41,000  Level Jacksonville Center
08:16AM 30.3675 -81.1567 359° North 422 486 41,000  Level Jacksonville Center
08:17AM 30.4844 -81.1569 360° North 422 486 41,000  Level Jacksonville Center
08:18AM 30.6056 -81.1547 North 422 486 41,000  Level Jacksonville Center
08:19AM 30.7267 -81.1600 358° North 422 486 41,000  Level Jacksonville Center
08:20AM 30.8436 -81.1625 359° North 422 486 41,000  Level Jacksonville Center
08:21AM 30.9625 -81.1628 360° North 417 480 41,000  Level Jacksonville Center
08:22AM 31.0586 -81.1658 358° North 422 486 41,000  Level Jacksonville Center
08:23AM 31.2050 -81.1706 358° North 428 493 41,000  Level Jacksonville Center
08:24AM 31.3217 -81.1683 North 423 487 41,000  Level Jacksonville Center
08:25AM 31.4253 -81.1031 28° Northeast 418 481 41,000  Level Jacksonville Center
08:26AM 31.5203 -81.0378 30° Northeast 418 481 41,000  Level Jacksonville Center
08:27AM 31.6361 -80.9550 31° Northeast 425 489 41,000  Level Jacksonville Center
08:28AM 31.7394 -80.8844 30° Northeast 427 491 41,000  Level Jacksonville Center
08:29AM 31.8425 -80.8114 31° Northeast 427 491 41,000  Level Jacksonville Center
08:30AM 31.9458 -80.7381 31° Northeast 427 491 41,000  Level Jacksonville Center
08:31AM 32.0383 -80.6697 32° Northeast 432 497 41,000  Level Jacksonville Center
08:32AM 32.1539 -80.5908 30° Northeast 432 497 41,000  Level Jacksonville Center
08:33AM 32.2425 -80.5247 32° Northeast 420 483 41,000  Level Jacksonville Center
08:34AM 32.3475 -80.4508 31° Northeast 427 491 41,000  Level Jacksonville Center
08:35AM 32.4486 -80.3792 31° Northeast 427 491 41,000  Level Jacksonville Center
08:36AM 32.5492 -80.3047 32° Northeast 427 491 41,000  Level Jacksonville Center
08:37AM 32.6458 -80.2331 32° Northeast 422 486 41,000  Level Jacksonville Center
08:38AM 32.7444 -80.1608 32° Northeast 422 486 41,000  Level Jacksonville Center
08:39AM 32.8472 -80.0861 31° Northeast 422 486 41,000  Level Jacksonville Center
08:40AM 32.9581 -80.0008 33° Northeast 427 491 41,000  Level Jacksonville Center
08:41AM 33.0586 -79.9233 33° Northeast 427 491 41,000  Level Jacksonville Center
08:42AM 33.1569 -79.8531 31° Northeast 420 483 41,000  Level Jacksonville Center
08:43AM 33.2553 -79.7778 33° Northeast 420 483 41,000  Level Jacksonville Center
08:44AM 33.3536 -79.6997 34° Northeast 420 483 41,000  Level Jacksonville Center
08:45AM 33.4497 -79.6267 32° Northeast 420 483 41,000  Level Jacksonville Center
08:46AM 33.5481 -79.5483 34° Northeast 420 483 41,000  Level Jacksonville Center
08:47AM 33.6461 -79.4722 33° Northeast 420 483 41,000  Level Jacksonville Center
08:48AM 33.7278 -79.4064 34° Northeast 415 478 41,000  Level Jacksonville Center
08:49AM 33.8300 -79.3300 32° Northeast 405 466 41,000  Level Jacksonville Center
08:50AM 33.9339 -79.2456 34° Northeast 410 472 41,000  Level Jacksonville Center
08:51AM 34.0339 -79.1714 32° Northeast 410 472 41,000  Level Jacksonville Center
08:52AM 34.1867 -79.0489 34° Northeast 404 465 41,000  Level Washington Center
08:53AM 34.2847 -78.9725 33° Northeast 404 465 41,000  Level Washington Center
08:54AM 34.3850 -78.8911 34° Northeast 415 478 41,000  Level Washington Center
08:55AM 34.4831 -78.8119 34° Northeast 420 483 41,000  Level Washington Center
08:56AM 34.5836 -78.7275 35° Northeast 425 489 41,000  Level Washington Center
08:57AM 34.6753 -78.6528 34° Northeast 436 502 41,000  Level Washington Center
08:58AM 34.7881 -78.5608 34° Northeast 436 502 41,000  Level Washington Center
08:59AM 34.8881 -78.4811 33° Northeast 436 502 41,000  Level Washington Center
09:00AM 34.9881 -78.3958 35° Northeast 436 502 41,000  Level Washington Center
09:01AM 35.0903 -78.3131 34° Northeast 436 502 41,000  Level Washington Center
09:02AM 35.1944 -78.2278 34° Northeast 436 502 41,000  Level Washington Center
09:03AM 35.2900 -78.1494 34° Northeast 442 509 41,000  Level Washington Center
09:04AM 35.3919 -78.0661 34° Northeast 442 509 41,000  Level Washington Center
09:05AM 35.4958 -77.9775 35° Northeast 449 517 41,000  Level Washington Center
09:06AM 35.5997 -77.8961 32° Northeast 449 517 41,000  Level Washington Center
09:07AM 35.7014 -77.8122 34° Northeast 444 511 41,000  Level Washington Center
09:08AM 35.8075 -77.7228 34° Northeast 444 511 41,000  Level Washington Center
09:09AM 35.9092 -77.6386 34° Northeast 444 511 41,000  Level Washington Center
09:10AM 36.0106 -77.5511 35° Northeast 444 511 41,000  Level Washington Center
09:11AM 36.1142 -77.4664 33° Northeast 444 511 41,000  Level Washington Center
09:12AM 36.2158 -77.3786 35° Northeast 439 505 41,000  Level Washington Center
09:13AM 36.3192 -77.2933 34° Northeast 439 505 41,000  Level Washington Center
09:14AM 36.4206 -77.2028 36° Northeast 444 511 41,000  Level Washington Center
09:15AM 36.5242 -77.1144 34° Northeast 444 511 41,000  Level Washington Center
09:16AM 36.6272 -77.0258 35° Northeast 444 511 41,000  Level Washington Center
09:17AM 36.7306 -76.9369 35° Northeast 444 511 41,000  Level Washington Center
09:18AM 36.8358 -76.8481 34° Northeast 449 517 41,000  Level Washington Center
09:19AM 36.9389 -76.7586 35° Northeast 449 517 41,000  Level Washington Center
09:20AM 37.0231 -76.6844 35° Northeast 449 517 41,000  Level Washington Center
09:21AM 37.1578 -76.5639 35° Northeast 449 517 41,000  Level Washington Center
09:22AM 37.2628 -76.4714 35° Northeast 449 517 41,000  Level Washington Center
09:23AM 37.3675 -76.3836 34° Northeast 449 517 41,000  Level Washington Center
09:24AM 37.4703 -76.2906 36° Northeast 449 517 41,000  Level Washington Center
09:25AM 37.5753 -76.1997 34° Northeast 449 517 41,000  Level Washington Center
09:26AM 37.6819 -76.1139 32° Northeast 449 517 41,000  Level Washington Center
09:27AM 37.7825 -76.0147 38° Northeast 454 522 41,000  Level Washington Center
09:28AM 37.8869 -75.9233 35° Northeast 454 522 41,000  Level Washington Center
09:29AM 37.9914 -75.8261 36° Northeast 454 522 41,000  Level Washington Center
09:31AM 38.0939 -75.7369 34° Northeast 454 522 41,000  Level Washington Center
09:32AM 38.2086 -75.6314 36° Northeast 454 522 41,000  Level Washington Center
09:33AM 38.3128 -75.5389 35° Northeast 459 528 41,000  Level Washington Center
09:34AM 38.4294 -75.4778 22° Northeast 451 519 41,000  Level Washington Center
09:35AM 38.5461 -75.4272 19° North 443 510 41,000  Level Washington Center
09:36AM 38.6628 -75.3817 17° North 436 502 41,000  Level Washington Center
09:36AM 38.7817 -75.3281 19° North 436 502 41,000  Level Washington Center
09:37AM 38.8897 -75.2475 30° Northeast 447 514 41,000  Level Washington Center
09:39AM 39.0000 -75.1589 32° Northeast 447 514 41,000  Level Washington Center
09:40AM 39.1081 -75.0700 33° Northeast 459 528 41,000  Level Washington Center
09:41AM 39.2283 -74.9753 31° Northeast 464 534 41,000  Level Washington Center
09:41AM 39.3258 -74.8914 34° Northeast 459 528 41,000  Level Washington Center
09:42AM 39.4461 -74.7933 32° Northeast 454 522 41,000 -720 Level Washington Center
09:44AM 39.6164 -74.6461 34° Northeast 430 495 39,200 -1,080 Descending New York Center
09:45AM 39.7128 -74.5650 33° Northeast 449 517 38,200 -1,380 Descending New York Center
09:46AM 39.8158 -74.4733 34° Northeast 449 517 36,600 -1,680 Descending New York Center
09:47AM 39.9314 -74.3767 33° Northeast 455 524 35,000 -840 Descending New York Center
09:48AM 40.0319 -74.2897 33° Northeast 443 510 35,000  Level New York Center
09:49AM 40.1219 -74.2019 37° Northeast 443 510 35,000  Level New York Center
09:50AM 40.2186 -74.1061 37° Northeast 443 510 35,000  Level New York Center
09:51AM 40.3131 -74.0047 39° Northeast 438 504 35,000 -840 Level New York Center
09:52AM 40.4181 -73.8978 38° Northeast 438 504 33,400 -2,100 Descending New York Center
09:54AM 40.5797 -73.7381 37° Northeast 432 497 29,400 -2,400 Descending Boston Center
09:55AM 40.6725 -73.6414 38° Northeast 426 490 27,000 -2,100 Descending Boston Center
09:56AM 40.7528 -73.5550 39° Northeast 420 483 25,200 -1,500 Descending Boston Center
09:57AM 40.8453 -73.4608 38° Northeast 415 478 24,000 -600 Descending Boston Center
09:58AM 40.9253 -73.3494 46° Northeast 415 478 24,000  Level Boston Center
09:59AM 41.0014 -73.2350 49° Northeast 409 471 24,000 -540 Level Boston Center
10:00AM 41.0794 -73.0900 54° Northeast 422 486 23,000 -540 Descending Boston Center
10:01AM 41.1406 -72.9556 59° Northeast 422 486 23,000  Level Boston Center
10:02AM 41.2056 -72.8208 57° Northeast 428 493 23,000  Level Boston Center
10:03AM 41.2664 -72.6858 59° Northeast 433 498 23,000  Level Boston Center
10:04AM 41.3228 -72.5561 60° Northeast 433 498 23,000  Level Boston Center
10:05AM 41.3856 -72.4208 58° Northeast 428 493 23,000  Level Boston Center
10:06AM 41.4519 -72.2739 59° Northeast 418 481 23,000 -660 Level Boston Center
10:07AM 41.5081 -72.1353 62° Northeast 413 475 21,700 -1,800 Descending Boston Center
10:08AM 41.5575 -71.9961 65° Northeast 413 475 19,500 -2,280 Descending Boston Center
10:09AM 41.6006 -71.8517 68° East 419 482 17,200 -2,160 Descending Boston Center
10:10AM 41.6417 -71.7150 68° East 413 475 15,200 -2,100 Descending Boston Center
10:11AM 41.6822 -71.5811 68° East 393 452 13,100 -1,920 Descending Boston Center
10:12AM 41.7128 -71.4694 70° East 364 419 11,400 -960 Descending Boston Center
10:13AM 41.7597 -71.3603 60° Northeast 317 365 11,000 -240 Descending Boston Center
10:14AM 41.8108 -71.2731 52° Northeast 258 297 11,000 -360 Level Boston Center
10:15AM 41.8689 -71.2442 20° North 236 272 10,300 -1,200 Descending Boston Center
10:16AM 41.9394 -71.2094 20° North 236 272 8,600 -1,620 Descending Boston Center
10:17AM 41.9933 -71.1831 20° North 241 277 7,100 -1,620 Descending Boston Center
10:18AM 42.0597 -71.1539 18° North 235 270 5,400 -1,560 Descending Boston Center
10:19AM 42.1136 -71.1247 22° Northeast 230 265 4,000 -900 Descending Boston Center
10:20AM 42.1736 -71.0983 18° North 206 237 3,700 -660 Descending Boston Center
10:21AM 42.2192 -71.0747 21° North 201 231 2,800 -960 Descending Boston Center
10:22AM 42.2689 -71.0514 19° North 181 208 1,800 -900 Descending Boston Center
10:23AM 42.3167 -71.0333 16° North 130 150 800 -720 Descending KA90
10:24AM 42.3500 -71.0167 20° North 113 130 200 -600 Descending KA90
10:27AM 42.3500 -71.0000 North  Level FlightAware Approximate